createdAt,value
2022-09-13T00:00:09.717Z,1008.66
2022-09-13T00:01:09.851Z,1008.69
2022-09-13T00:02:09.773Z,1008.71
2022-09-13T00:03:09.735Z,1008.69
2022-09-13T00:04:09.710Z,1008.69
2022-09-13T00:05:09.707Z,1008.64
2022-09-13T00:06:09.705Z,1008.69
2022-09-13T00:07:09.707Z,1008.70
2022-09-13T00:08:09.707Z,1008.68
2022-09-13T00:09:09.711Z,1008.66
2022-09-13T00:10:09.714Z,1008.66
2022-09-13T00:11:09.706Z,1008.61
2022-09-13T00:12:09.708Z,1008.63
2022-09-13T00:13:09.719Z,1008.58
2022-09-13T00:14:09.711Z,1008.54
2022-09-13T00:15:09.709Z,1008.55
2022-09-13T00:16:09.732Z,1008.48
2022-09-13T00:17:09.760Z,1008.45
2022-09-13T00:18:09.714Z,1008.45
2022-09-13T00:19:09.737Z,1008.47
2022-09-13T00:20:09.710Z,1008.46
2022-09-13T00:21:09.707Z,1008.45
2022-09-13T00:22:09.714Z,1008.47
2022-09-13T00:23:09.710Z,1008.41
2022-09-13T00:24:09.718Z,1008.43
2022-09-13T00:25:09.713Z,1008.39
2022-09-13T00:26:09.718Z,1008.39
2022-09-13T00:27:09.718Z,1008.39
2022-09-13T00:28:09.715Z,1008.39
2022-09-13T00:29:09.713Z,1008.36
2022-09-13T00:30:09.713Z,1008.33
2022-09-13T00:31:09.717Z,1008.30
2022-09-13T00:32:09.719Z,1008.23
2022-09-13T00:33:09.712Z,1008.29
2022-09-13T00:34:09.716Z,1008.29
2022-09-13T00:35:09.732Z,1008.31
2022-09-13T00:36:09.717Z,1008.26
2022-09-13T00:37:09.712Z,1008.29
2022-09-13T00:38:09.717Z,1008.25
2022-09-13T00:39:09.716Z,1008.22
2022-09-13T00:40:09.761Z,1008.23
2022-09-13T00:41:09.719Z,1008.19
2022-09-13T00:42:09.718Z,1008.16
2022-09-13T00:43:09.715Z,1008.14
2022-09-13T00:44:09.716Z,1008.10
2022-09-13T00:45:09.719Z,1008.08
2022-09-13T00:46:09.834Z,1008.06
2022-09-13T00:47:09.723Z,1008.02
2022-09-13T00:48:09.715Z,1008.02
2022-09-13T00:49:09.716Z,1008.00
2022-09-13T00:50:09.719Z,1007.96
2022-09-13T00:51:09.736Z,1007.91
2022-09-13T00:52:09.719Z,1007.90
2022-09-13T00:53:09.716Z,1007.84
2022-09-13T00:54:09.721Z,1007.84
2022-09-13T00:55:09.715Z,1007.86
2022-09-13T00:56:09.720Z,1007.85
2022-09-13T00:57:09.718Z,1007.82
2022-09-13T00:58:09.720Z,1007.82
2022-09-13T00:59:09.734Z,1007.79
2022-09-13T01:00:09.718Z,1007.76
2022-09-13T01:01:09.786Z,1007.73
2022-09-13T01:02:09.758Z,1007.66
2022-09-13T01:03:09.719Z,1007.67
2022-09-13T01:04:12.742Z,1007.67
2022-09-13T01:05:09.720Z,1007.69
2022-09-13T01:06:09.727Z,1007.73
2022-09-13T01:07:09.739Z,1007.70
2022-09-13T01:08:09.723Z,1007.71
2022-09-13T01:09:09.725Z,1007.71
2022-09-13T01:10:09.722Z,1007.66
2022-09-13T01:11:09.729Z,1007.68
2022-09-13T01:12:09.721Z,1007.64
2022-09-13T01:13:09.720Z,1007.64
2022-09-13T01:14:09.809Z,1007.67
2022-09-13T01:15:09.721Z,1007.63
2022-09-13T01:16:09.769Z,1007.62
2022-09-13T01:17:09.770Z,1007.58
2022-09-13T01:18:09.725Z,1007.60
2022-09-13T01:19:09.735Z,1007.59
2022-09-13T01:20:09.725Z,1007.61
2022-09-13T01:21:09.724Z,1007.62
2022-09-13T01:22:09.730Z,1007.59
2022-09-13T01:23:09.743Z,1007.59
2022-09-13T01:24:09.726Z,1007.63
2022-09-13T01:25:09.724Z,1007.62
2022-09-13T01:26:09.722Z,1007.61
2022-09-13T01:27:09.722Z,1007.57
2022-09-13T01:28:09.729Z,1007.53
2022-09-13T01:29:09.722Z,1007.50
2022-09-13T01:30:09.723Z,1007.48
2022-09-13T01:31:09.727Z,1007.50
2022-09-13T01:32:09.725Z,1007.45
2022-09-13T01:33:09.727Z,1007.47
2022-09-13T01:34:09.726Z,1007.45
2022-09-13T01:35:09.723Z,1007.48
2022-09-13T01:36:09.727Z,1007.47
2022-09-13T01:37:09.726Z,1007.46
2022-09-13T01:38:09.728Z,1007.45
2022-09-13T01:39:09.754Z,1007.47
2022-09-13T01:40:09.868Z,1007.52
2022-09-13T01:41:09.723Z,1007.48
2022-09-13T01:42:09.736Z,1007.52
2022-09-13T01:43:09.724Z,1007.52
2022-09-13T01:44:09.725Z,1007.51
2022-09-13T01:45:09.731Z,1007.56
2022-09-13T01:46:09.844Z,1007.55
2022-09-13T01:47:09.728Z,1007.53
2022-09-13T01:48:09.729Z,1007.53
2022-09-13T01:49:09.725Z,1007.46
2022-09-13T01:50:09.729Z,1007.48
2022-09-13T01:51:09.728Z,1007.36
2022-09-13T01:52:09.726Z,1007.33
2022-09-13T01:53:09.729Z,1007.29
2022-09-13T01:54:09.727Z,1007.34
2022-09-13T01:55:09.743Z,1007.31
2022-09-13T01:56:09.732Z,1007.36
2022-09-13T01:57:09.730Z,1007.31
2022-09-13T01:58:09.731Z,1007.31
2022-09-13T01:59:09.730Z,1007.29
2022-09-13T02:00:09.726Z,1007.26
2022-09-13T02:01:09.802Z,1007.23
2022-09-13T02:02:09.785Z,1007.22
2022-09-13T02:03:09.734Z,1007.17
2022-09-13T02:04:09.726Z,1007.14
2022-09-13T02:05:09.737Z,1007.16
2022-09-13T02:06:09.727Z,1007.16
2022-09-13T02:07:09.734Z,1007.15
2022-09-13T02:08:09.729Z,1007.18
2022-09-13T02:09:09.730Z,1007.16
2022-09-13T02:10:09.733Z,1007.15
2022-09-13T02:11:09.751Z,1007.16
2022-09-13T02:12:09.730Z,1007.12
2022-09-13T02:13:09.733Z,1007.04
2022-09-13T02:14:09.731Z,1007.05
2022-09-13T02:15:09.737Z,1007.02
2022-09-13T02:16:09.775Z,1007.01
2022-09-13T02:17:09.782Z,1007.02
2022-09-13T02:18:09.728Z,1007.01
2022-09-13T02:19:09.735Z,1006.98
2022-09-13T02:20:09.731Z,1007.02
2022-09-13T02:21:09.732Z,1007.04
2022-09-13T02:22:09.731Z,1006.97
2022-09-13T02:23:09.729Z,1007.01
2022-09-13T02:24:09.731Z,1007.00
2022-09-13T02:25:09.732Z,1007.04
2022-09-13T02:26:09.732Z,1007.01
2022-09-13T02:27:09.751Z,1006.98
2022-09-13T02:28:09.733Z,1006.98
2022-09-13T02:29:09.732Z,1006.97
2022-09-13T02:30:09.728Z,1006.98
2022-09-13T02:31:09.740Z,1006.95
2022-09-13T02:32:09.731Z,1006.90
2022-09-13T02:33:09.732Z,1006.89
2022-09-13T02:34:09.730Z,1006.92
2022-09-13T02:35:09.731Z,1006.88
2022-09-13T02:36:09.735Z,1006.91
2022-09-13T02:37:09.732Z,1006.89
2022-09-13T02:38:09.730Z,1006.88
2022-09-13T02:39:09.737Z,1006.87
2022-09-13T02:40:09.776Z,1006.84
2022-09-13T02:41:09.735Z,1006.84
2022-09-13T02:42:12.451Z,1006.87
2022-09-13T02:43:09.847Z,1006.87
2022-09-13T02:44:09.728Z,1006.86
2022-09-13T02:45:09.735Z,1006.83
2022-09-13T02:46:09.798Z,1006.80
2022-09-13T02:47:09.732Z,1006.80
2022-09-13T02:48:09.731Z,1006.79
2022-09-13T02:49:09.737Z,1006.73
2022-09-13T02:50:09.732Z,1006.70
2022-09-13T02:51:09.736Z,1006.71
2022-09-13T02:52:09.736Z,1006.68
2022-09-13T02:53:09.731Z,1006.62
2022-09-13T02:54:09.735Z,1006.61
2022-09-13T02:55:09.736Z,1006.59
2022-09-13T02:56:09.733Z,1006.58
2022-09-13T02:57:09.733Z,1006.62
2022-09-13T02:58:09.739Z,1006.58
2022-09-13T02:59:09.762Z,1006.59
2022-09-13T03:00:09.732Z,1006.62
2022-09-13T03:01:09.785Z,1006.58
2022-09-13T03:02:09.775Z,1006.54
2022-09-13T03:03:09.737Z,1006.57
2022-09-13T03:04:09.729Z,1006.55
2022-09-13T03:05:09.735Z,1006.61
2022-09-13T03:06:09.731Z,1006.57
2022-09-13T03:07:09.734Z,1006.55
2022-09-13T03:08:09.733Z,1006.52
2022-09-13T03:09:09.733Z,1006.52
2022-09-13T03:10:09.731Z,1006.52
2022-09-13T03:11:09.740Z,1006.54
2022-09-13T03:12:09.730Z,1006.50
2022-09-13T03:13:09.739Z,1006.49
2022-09-13T03:14:09.744Z,1006.39
2022-09-13T03:15:09.758Z,1006.37
2022-09-13T03:16:09.804Z,1006.31
2022-09-13T03:17:09.784Z,1006.30
2022-09-13T03:18:09.737Z,1006.24
2022-09-13T03:19:09.734Z,1006.27
2022-09-13T03:20:09.733Z,1006.22
2022-09-13T03:21:09.738Z,1006.24
2022-09-13T03:22:09.738Z,1006.21
2022-09-13T03:23:09.736Z,1006.20
2022-09-13T03:24:09.731Z,1006.15
2022-09-13T03:25:09.740Z,1006.11
2022-09-13T03:26:09.736Z,1006.10
2022-09-13T03:27:09.735Z,1006.06
2022-09-13T03:28:09.738Z,1006.03
2022-09-13T03:29:09.738Z,1006.01
2022-09-13T03:30:09.739Z,1006.02
2022-09-13T03:31:09.806Z,1005.99
2022-09-13T03:32:09.839Z,1006.01
2022-09-13T03:33:09.736Z,1006.01
2022-09-13T03:34:09.736Z,1006.03
2022-09-13T03:35:09.737Z,1006.00
2022-09-13T03:36:09.736Z,1005.97
2022-09-13T03:37:09.737Z,1005.99
2022-09-13T03:38:09.738Z,1005.95
2022-09-13T03:39:14.387Z,1006.00
2022-09-13T03:40:09.765Z,1006.04
2022-09-13T03:41:09.733Z,1006.06
2022-09-13T03:42:09.740Z,1006.00
2022-09-13T03:43:09.736Z,1006.00
2022-09-13T03:44:09.733Z,1006.06
2022-09-13T03:45:09.740Z,1006.03
2022-09-13T03:46:09.813Z,1006.08
2022-09-13T03:47:09.843Z,1006.06
2022-09-13T03:48:09.735Z,1006.07
2022-09-13T03:49:09.739Z,1006.06
2022-09-13T03:50:09.736Z,1006.09
2022-09-13T03:51:09.732Z,1006.13
2022-09-13T03:52:09.732Z,1006.12
2022-09-13T03:53:09.731Z,1006.17
2022-09-13T03:54:09.734Z,1006.17
2022-09-13T03:55:09.735Z,1006.18
2022-09-13T03:56:09.837Z,1006.15
2022-09-13T03:57:09.743Z,1006.16
2022-09-13T03:58:09.734Z,1006.13
2022-09-13T03:59:09.736Z,1006.10
2022-09-13T04:00:09.735Z,1006.08
2022-09-13T04:01:09.771Z,1006.08
2022-09-13T04:02:09.803Z,1006.05
2022-09-13T04:03:09.759Z,1006.06
2022-09-13T04:04:09.732Z,1006.05
2022-09-13T04:05:09.737Z,1006.03
2022-09-13T04:06:09.734Z,1006.01
2022-09-13T04:07:09.734Z,1005.98
2022-09-13T04:08:09.732Z,1005.93
2022-09-13T04:09:09.735Z,1005.91
2022-09-13T04:10:13.571Z,1005.86
2022-09-13T04:11:09.743Z,1005.85
2022-09-13T04:12:09.735Z,1005.81
2022-09-13T04:13:09.737Z,1005.80
2022-09-13T04:14:09.732Z,1005.81
2022-09-13T04:15:09.735Z,1005.78
2022-09-13T04:16:09.806Z,1005.75
2022-09-13T04:17:09.784Z,1005.78
2022-09-13T04:18:09.740Z,1005.78
2022-09-13T04:19:09.841Z,1005.78
2022-09-13T04:20:09.736Z,1005.76
2022-09-13T04:21:09.734Z,1005.70
2022-09-13T04:22:09.737Z,1005.72
2022-09-13T04:23:09.737Z,1005.65
2022-09-13T04:24:09.732Z,1005.64
2022-09-13T04:25:09.734Z,1005.61
2022-09-13T04:26:09.739Z,1005.61
2022-09-13T04:27:09.751Z,1005.65
2022-09-13T04:28:09.736Z,1005.63
2022-09-13T04:29:09.734Z,1005.68
2022-09-13T04:30:09.734Z,1005.66
2022-09-13T04:31:09.817Z,1005.74
2022-09-13T04:32:09.736Z,1005.74
2022-09-13T04:33:09.735Z,1005.73
2022-09-13T04:34:09.734Z,1005.66
2022-09-13T04:35:09.754Z,1005.61
2022-09-13T04:36:09.736Z,1005.61
2022-09-13T04:37:09.733Z,1005.60
2022-09-13T04:38:09.734Z,1005.57
2022-09-13T04:39:09.735Z,1005.59
2022-09-13T04:40:09.812Z,1005.59
2022-09-13T04:41:09.733Z,1005.60
2022-09-13T04:42:09.736Z,1005.59
2022-09-13T04:43:09.737Z,1005.59
2022-09-13T04:44:09.733Z,1005.60
2022-09-13T04:45:09.733Z,1005.54
2022-09-13T04:46:09.787Z,1005.55
2022-09-13T04:47:09.734Z,1005.52
2022-09-13T04:48:09.737Z,1005.50
2022-09-13T04:49:09.734Z,1005.51
2022-09-13T04:50:09.736Z,1005.47
2022-09-13T04:51:09.848Z,1005.46
2022-09-13T04:52:09.737Z,1005.43
2022-09-13T04:53:09.737Z,1005.40
2022-09-13T04:54:14.436Z,1005.42
2022-09-13T04:55:09.736Z,1005.41
2022-09-13T04:56:09.732Z,1005.38
2022-09-13T04:57:09.734Z,1005.38
2022-09-13T04:58:09.734Z,1005.35
2022-09-13T04:59:09.732Z,1005.39
2022-09-13T05:00:09.737Z,1005.33
2022-09-13T05:01:09.759Z,1005.35
2022-09-13T05:02:09.825Z,1005.30
2022-09-13T05:03:09.738Z,1005.33
2022-09-13T05:04:09.732Z,1005.32
2022-09-13T05:05:09.737Z,1005.33
2022-09-13T05:06:09.737Z,1005.34
2022-09-13T05:07:09.757Z,1005.29
2022-09-13T05:08:09.736Z,1005.31
2022-09-13T05:09:09.737Z,1005.31
2022-09-13T05:10:09.735Z,1005.28
2022-09-13T05:11:09.735Z,1005.26
2022-09-13T05:12:09.735Z,1005.30
2022-09-13T05:13:09.737Z,1005.30
2022-09-13T05:14:09.735Z,1005.25
2022-09-13T05:15:09.737Z,1005.26
2022-09-13T05:16:09.775Z,1005.23
2022-09-13T05:17:09.790Z,1005.22
2022-09-13T05:18:09.734Z,1005.24
2022-09-13T05:19:09.739Z,1005.16
2022-09-13T05:20:09.750Z,1005.17
2022-09-13T05:21:09.741Z,1005.21
2022-09-13T05:22:09.737Z,1005.23
2022-09-13T05:23:09.845Z,1005.26
2022-09-13T05:24:09.741Z,1005.21
2022-09-13T05:25:09.740Z,1005.29
2022-09-13T05:26:09.736Z,1005.25
2022-09-13T05:27:09.737Z,1005.27
2022-09-13T05:28:09.735Z,1005.25
2022-09-13T05:29:09.741Z,1005.22
2022-09-13T05:30:09.735Z,1005.18
2022-09-13T05:31:09.768Z,1005.08
2022-09-13T05:32:09.736Z,1005.12
2022-09-13T05:33:09.744Z,1005.08
2022-09-13T05:34:09.738Z,1005.08
2022-09-13T05:35:09.743Z,1005.10
2022-09-13T05:36:09.742Z,1005.06
2022-09-13T05:37:09.738Z,1005.08
2022-09-13T05:38:09.738Z,1005.05
2022-09-13T05:39:29.784Z,1004.96
2022-09-13T05:40:12.355Z,1004.85
2022-09-13T05:41:09.740Z,1004.85
2022-09-13T05:42:09.739Z,1004.88
2022-09-13T05:43:09.739Z,1004.90
2022-09-13T05:44:13.362Z,1004.95
2022-09-13T05:45:09.737Z,1005.02
2022-09-13T05:46:09.758Z,1004.95
2022-09-13T05:47:09.743Z,1004.95
2022-09-13T05:48:09.739Z,1004.92
2022-09-13T05:49:09.738Z,1004.90
2022-09-13T05:50:13.238Z,1004.91
2022-09-13T05:51:09.742Z,1004.93
2022-09-13T05:52:09.741Z,1004.95
2022-09-13T05:53:09.739Z,1004.97
2022-09-13T05:54:09.742Z,1004.93
2022-09-13T05:55:09.766Z,1004.92
2022-09-13T05:56:13.338Z,1004.95
2022-09-13T05:57:09.743Z,1004.92
2022-09-13T05:58:09.737Z,1004.92
2022-09-13T05:59:09.741Z,1004.94
2022-09-13T06:00:09.742Z,1004.99
2022-09-13T06:01:09.743Z,1004.98
2022-09-13T06:02:09.856Z,1004.94
2022-09-13T06:03:09.743Z,1004.95
2022-09-13T06:04:09.740Z,1004.93
2022-09-13T06:05:09.745Z,1004.99
2022-09-13T06:06:09.741Z,1004.94
2022-09-13T06:07:09.746Z,1004.97
2022-09-13T06:08:09.742Z,1004.97
2022-09-13T06:09:09.743Z,1005.03
2022-09-13T06:10:09.748Z,1005.09
2022-09-13T06:11:09.849Z,1005.07
2022-09-13T06:12:09.743Z,1005.13
2022-09-13T06:13:09.740Z,1005.13
2022-09-13T06:14:09.741Z,1005.16
2022-09-13T06:15:09.749Z,1005.21
2022-09-13T06:16:09.841Z,1005.28
2022-09-13T06:17:09.799Z,1005.30
2022-09-13T06:18:09.745Z,1005.28
2022-09-13T06:19:09.750Z,1005.27
2022-09-13T06:20:09.744Z,1005.27
2022-09-13T06:21:09.744Z,1005.25
2022-09-13T06:22:09.743Z,1005.23
2022-09-13T06:23:09.750Z,1005.22
2022-09-13T06:24:09.742Z,1005.20
2022-09-13T06:25:09.747Z,1005.23
2022-09-13T06:26:09.752Z,1005.26
2022-09-13T06:27:09.769Z,1005.35
2022-09-13T06:28:09.746Z,1005.35
2022-09-13T06:29:09.751Z,1005.32
2022-09-13T06:30:09.749Z,1005.32
2022-09-13T06:31:09.789Z,1005.36
2022-09-13T06:32:09.748Z,1005.37
2022-09-13T06:33:09.747Z,1005.33
2022-09-13T06:34:09.748Z,1005.32
2022-09-13T06:35:09.748Z,1005.32
2022-09-13T06:36:09.747Z,1005.28
2022-09-13T06:37:09.749Z,1005.24
2022-09-13T06:38:09.745Z,1005.30
2022-09-13T06:39:09.745Z,1005.32
2022-09-13T06:40:09.805Z,1005.34
2022-09-13T06:41:09.752Z,1005.40
2022-09-13T06:42:09.752Z,1005.38
2022-09-13T06:43:09.778Z,1005.39
2022-09-13T06:44:09.749Z,1005.39
2022-09-13T06:45:09.744Z,1005.39
2022-09-13T06:46:09.793Z,1005.40
2022-09-13T06:47:09.752Z,1005.41
2022-09-13T06:48:09.746Z,1005.49
2022-09-13T06:49:09.747Z,1005.44
2022-09-13T06:50:09.750Z,1005.45
2022-09-13T06:51:09.752Z,1005.46
2022-09-13T06:52:09.747Z,1005.47
2022-09-13T06:53:09.753Z,1005.45
2022-09-13T06:54:09.748Z,1005.45
2022-09-13T06:55:12.661Z,1005.42
2022-09-13T06:56:09.746Z,1005.38
2022-09-13T06:57:09.748Z,1005.36
2022-09-13T06:58:09.751Z,1005.34
2022-09-13T06:59:09.769Z,1005.30
2022-09-13T07:00:09.747Z,1005.22
2022-09-13T07:01:09.827Z,1005.21
2022-09-13T07:02:09.966Z,1005.19
2022-09-13T07:03:09.746Z,1005.19
2022-09-13T07:04:09.751Z,1005.18
2022-09-13T07:05:09.747Z,1005.23
2022-09-13T07:06:10.076Z,1005.24
2022-09-13T07:07:09.753Z,1005.26
2022-09-13T07:08:09.747Z,1005.25
2022-09-13T07:09:09.754Z,1005.22
2022-09-13T07:10:09.753Z,1005.19
2022-09-13T07:11:09.750Z,1005.14
2022-09-13T07:12:09.750Z,1005.13
2022-09-13T07:13:09.752Z,1005.09
2022-09-13T07:14:09.752Z,1005.11
2022-09-13T07:15:09.771Z,1005.09
2022-09-13T07:16:09.829Z,1005.14
2022-09-13T07:17:09.803Z,1005.11
2022-09-13T07:18:09.751Z,1005.08
2022-09-13T07:19:09.751Z,1005.09
2022-09-13T07:20:09.753Z,1005.02
2022-09-13T07:21:09.753Z,1004.97
2022-09-13T07:22:09.752Z,1004.97
2022-09-13T07:23:12.513Z,1004.97
2022-09-13T07:24:09.753Z,1004.99
2022-09-13T07:25:09.755Z,1005.02
2022-09-13T07:26:09.757Z,1005.02
2022-09-13T07:27:09.754Z,1004.97
2022-09-13T07:28:09.752Z,1004.96
2022-09-13T07:29:09.753Z,1004.94
2022-09-13T07:30:09.751Z,1004.99
2022-09-13T07:31:09.924Z,1004.97
2022-09-13T07:32:09.754Z,1004.96
2022-09-13T07:33:09.754Z,1004.96
2022-09-13T07:34:09.749Z,1004.93
2022-09-13T07:35:09.761Z,1004.90
2022-09-13T07:36:09.751Z,1004.90
2022-09-13T07:37:09.755Z,1004.86
2022-09-13T07:38:09.761Z,1004.86
2022-09-13T07:39:14.386Z,1004.89
2022-09-13T07:40:09.790Z,1004.86
2022-09-13T07:41:09.754Z,1004.86
2022-09-13T07:42:09.756Z,1004.91
2022-09-13T07:43:09.753Z,1004.86
2022-09-13T07:44:09.763Z,1004.91
2022-09-13T07:45:09.756Z,1004.89
2022-09-13T07:46:09.802Z,1004.94
2022-09-13T07:47:09.784Z,1004.93
2022-09-13T07:48:09.760Z,1005.00
2022-09-13T07:49:09.754Z,1004.99
2022-09-13T07:50:09.755Z,1004.99
2022-09-13T07:51:09.757Z,1005.00
2022-09-13T07:52:09.765Z,1005.01
2022-09-13T07:53:09.756Z,1005.00
2022-09-13T07:54:09.757Z,1004.99
2022-09-13T07:55:09.755Z,1004.95
2022-09-13T07:56:09.758Z,1004.92
2022-09-13T07:57:09.760Z,1004.88
2022-09-13T07:58:09.758Z,1004.89
2022-09-13T07:59:09.759Z,1004.89
2022-09-13T08:00:09.758Z,1004.93
2022-09-13T08:01:09.779Z,1004.93
2022-09-13T08:02:09.881Z,1004.96
2022-09-13T08:03:09.871Z,1004.94
2022-09-13T08:04:09.760Z,1004.92
2022-09-13T08:05:09.759Z,1004.90
2022-09-13T08:06:09.765Z,1004.90
2022-09-13T08:07:09.765Z,1004.85
2022-09-13T08:08:09.762Z,1004.88
2022-09-13T08:09:09.772Z,1004.88
2022-09-13T08:10:09.762Z,1004.89
2022-09-13T08:11:09.754Z,1004.90
2022-09-13T08:12:09.762Z,1004.86
2022-09-13T08:13:09.764Z,1004.86
2022-09-13T08:14:09.763Z,1004.84
2022-09-13T08:15:09.761Z,1004.80
2022-09-13T08:16:09.830Z,1004.77
2022-09-13T08:17:09.760Z,1004.81
2022-09-13T08:18:09.765Z,1004.75
2022-09-13T08:19:09.883Z,1004.76
2022-09-13T08:20:10.552Z,1004.75
2022-09-13T08:21:09.762Z,1004.76
2022-09-13T08:22:09.766Z,1004.80
2022-09-13T08:23:09.763Z,1004.74
2022-09-13T08:24:09.772Z,1004.78
2022-09-13T08:25:09.767Z,1004.82
2022-09-13T08:26:09.771Z,1004.90
2022-09-13T08:27:09.768Z,1005.04
2022-09-13T08:28:09.765Z,1005.19
2022-09-13T08:29:09.768Z,1005.61
2022-09-13T08:30:09.771Z,1005.41
2022-09-13T08:31:09.835Z,1005.28
2022-09-13T08:32:09.774Z,1005.29
2022-09-13T08:33:09.774Z,1005.16
2022-09-13T08:34:09.771Z,1005.11
2022-09-13T08:35:09.792Z,1005.15
2022-09-13T08:36:09.769Z,1005.16
2022-09-13T08:37:09.770Z,1005.27
2022-09-13T08:38:09.772Z,1005.07
2022-09-13T08:39:09.780Z,1005.05
2022-09-13T08:40:09.840Z,1004.97
2022-09-13T08:41:09.772Z,1005.00
2022-09-13T08:42:09.776Z,1005.01
2022-09-13T08:43:09.774Z,1005.01
2022-09-13T08:44:09.775Z,1005.03
2022-09-13T08:45:09.779Z,1005.10
2022-09-13T08:46:09.813Z,1005.01
2022-09-13T08:47:09.777Z,1004.95
2022-09-13T08:48:09.783Z,1004.92
2022-09-13T08:49:14.135Z,1004.91
2022-09-13T08:50:09.776Z,1004.94
2022-09-13T08:51:09.810Z,1004.93
2022-09-13T08:52:09.784Z,1004.98
2022-09-13T08:53:09.777Z,1004.97
2022-09-13T08:54:09.785Z,1005.03
2022-09-13T08:55:09.781Z,1005.02
2022-09-13T08:56:09.784Z,1005.06
2022-09-13T08:57:09.795Z,1005.19
2022-09-13T08:58:09.783Z,1005.17
2022-09-13T08:59:09.787Z,1005.28
2022-09-13T09:00:09.784Z,1005.23
2022-09-13T09:01:09.859Z,1005.19
2022-09-13T09:02:09.811Z,1005.24
2022-09-13T09:03:09.787Z,1005.37
2022-09-13T09:04:09.794Z,1005.11
2022-09-13T09:05:09.795Z,1005.13
2022-09-13T09:06:09.795Z,1005.30
2022-09-13T09:07:09.812Z,1005.56
2022-09-13T09:08:09.793Z,1005.15
2022-09-13T09:09:09.794Z,1005.38
2022-09-13T09:10:09.793Z,1005.86
2022-09-13T09:11:09.797Z,1005.61
2022-09-13T09:12:09.797Z,1005.30
2022-09-13T09:13:09.806Z,1005.19
2022-09-13T09:14:09.801Z,1005.13
2022-09-13T09:15:09.800Z,1005.31
2022-09-13T09:16:09.857Z,1005.21
2022-09-13T09:17:09.812Z,1005.54
2022-09-13T09:18:09.810Z,1005.16
2022-09-13T09:19:09.813Z,1005.09
2022-09-13T09:20:09.808Z,1005.11
2022-09-13T09:21:09.811Z,1005.21
2022-09-13T09:22:09.873Z,1005.19
2022-09-13T09:23:09.845Z,1005.12
2022-09-13T09:24:09.820Z,1005.18
2022-09-13T09:25:09.817Z,1005.25
2022-09-13T09:26:09.822Z,1005.27
2022-09-13T09:27:09.823Z,1005.16
2022-09-13T09:28:09.827Z,1005.25
2022-09-13T09:29:09.831Z,1005.28
2022-09-13T09:30:09.831Z,1005.68
2022-09-13T09:31:10.009Z,1005.54
2022-09-13T09:32:09.834Z,1005.63
2022-09-13T09:33:09.839Z,1006.13
2022-09-13T09:34:09.841Z,1005.67
2022-09-13T09:35:09.838Z,1006.17
2022-09-13T09:36:09.873Z,1005.86
2022-09-13T09:37:09.849Z,1006.12
2022-09-13T09:38:09.855Z,1005.62
2022-09-13T09:39:09.876Z,1005.92
2022-09-13T09:40:09.916Z,1005.59
2022-09-13T09:41:09.862Z,1005.36
2022-09-13T09:42:09.869Z,1005.23
2022-09-13T09:43:09.890Z,1005.11
2022-09-13T09:44:09.874Z,1005.04
2022-09-13T09:45:09.886Z,1005.17
2022-09-13T09:46:09.932Z,1005.45
2022-09-13T09:47:09.889Z,1005.31
2022-09-13T09:48:09.896Z,1005.42
2022-09-13T09:49:09.898Z,1005.31
2022-09-13T09:50:09.917Z,1005.30
2022-09-13T09:51:09.908Z,1005.54
2022-09-13T09:52:09.911Z,1005.41
2022-09-13T09:53:09.918Z,1005.75
2022-09-13T09:54:09.923Z,1005.43
2022-09-13T09:55:09.949Z,1005.35
2022-09-13T09:56:09.945Z,1005.12
2022-09-13T09:57:09.941Z,1005.57
2022-09-13T09:58:09.942Z,1005.97
2022-09-13T09:59:09.948Z,1005.66
2022-09-13T10:00:09.958Z,1005.70
2022-09-13T10:01:11.417Z,1006.04
2022-09-13T10:02:09.987Z,1006.00
2022-09-13T10:03:09.971Z,1005.46
2022-09-13T10:04:09.981Z,1005.35
2022-09-13T10:05:09.986Z,1005.55
2022-09-13T10:06:09.987Z,1005.38
2022-09-13T10:07:13.784Z,1005.29
2022-09-13T10:08:10.007Z,1005.20
2022-09-13T10:09:10.020Z,1005.22
2022-09-13T10:10:10.022Z,1005.22
2022-09-13T10:11:10.132Z,1005.21
2022-09-13T10:12:10.032Z,1005.13
2022-09-13T10:13:10.033Z,1005.04
2022-09-13T10:14:10.043Z,1004.93
2022-09-13T10:15:10.054Z,1004.93
2022-09-13T10:16:10.058Z,1004.98
2022-09-13T10:17:10.065Z,1005.16
2022-09-13T10:18:26.382Z,1005.72
2022-09-13T10:19:11.666Z,1005.70
2022-09-13T10:20:10.092Z,1005.77
2022-09-13T10:21:10.090Z,1005.86
2022-09-13T10:22:10.151Z,1005.84
2022-09-13T10:23:10.110Z,1005.84
2022-09-13T10:24:10.121Z,1005.83
2022-09-13T10:25:10.124Z,1006.04
2022-09-13T10:26:10.131Z,1005.45
2022-09-13T10:27:10.171Z,1005.23
2022-09-13T10:28:10.153Z,1005.04
2022-09-13T10:29:10.161Z,1005.05
2022-09-13T10:30:10.165Z,1004.98
2022-09-13T10:31:12.839Z,1005.17
2022-09-13T10:32:10.185Z,1005.05
2022-09-13T10:33:10.193Z,1004.92
2022-09-13T10:34:10.201Z,1004.92
2022-09-13T10:35:10.210Z,1004.98
2022-09-13T10:36:10.218Z,1005.03
2022-09-13T10:37:10.227Z,1005.09
2022-09-13T10:38:10.234Z,1004.99
2022-09-13T10:39:10.248Z,1005.30
2022-09-13T10:40:10.312Z,1005.09
2022-09-13T10:41:10.268Z,1004.93
2022-09-13T10:42:10.269Z,1005.46
2022-09-13T10:43:10.301Z,1004.73
2022-09-13T10:44:10.290Z,1004.97
2022-09-13T10:45:10.297Z,1004.80
2022-09-13T10:46:10.351Z,1004.78
2022-09-13T10:47:10.316Z,1004.75
2022-09-13T10:48:10.354Z,1004.74
2022-09-13T10:49:10.335Z,1004.80
2022-09-13T10:50:10.337Z,1004.78
2022-09-13T10:51:06.729Z,1004.80
2022-09-13T10:52:06.716Z,1004.79
2022-09-13T10:53:06.727Z,1004.69
2022-09-13T10:54:06.728Z,1004.63
2022-09-13T10:55:06.739Z,1004.56
2022-09-13T10:56:06.749Z,1004.46
2022-09-13T10:57:06.762Z,1004.41
2022-09-13T10:58:06.767Z,1004.38
2022-09-13T10:59:06.792Z,1004.37
2022-09-13T11:00:06.777Z,1004.36
2022-09-13T11:01:06.862Z,1004.33
2022-09-13T11:02:06.792Z,1004.35
2022-09-13T11:03:06.802Z,1004.34
2022-09-13T11:04:06.841Z,1004.34
2022-09-13T11:05:06.817Z,1004.34
2022-09-13T11:06:06.822Z,1004.37
2022-09-13T11:07:06.827Z,1004.27
2022-09-13T11:08:06.839Z,1004.24
2022-09-13T11:09:06.839Z,1004.25
2022-09-13T11:10:06.850Z,1004.24
2022-09-13T11:11:06.854Z,1004.20
2022-09-13T11:12:06.858Z,1004.21
2022-09-13T11:13:06.867Z,1004.21
2022-09-13T11:14:06.872Z,1004.27
2022-09-13T11:15:06.906Z,1004.24
2022-09-13T11:16:06.968Z,1004.31
2022-09-13T11:17:06.893Z,1004.26
2022-09-13T11:18:06.896Z,1004.21
2022-09-13T11:19:06.899Z,1004.21
2022-09-13T11:20:06.907Z,1004.20
2022-09-13T11:21:06.910Z,1004.19
2022-09-13T11:22:06.919Z,1004.21
2022-09-13T11:23:06.921Z,1004.16
2022-09-13T11:24:06.927Z,1004.21
2022-09-13T11:25:06.930Z,1004.16
2022-09-13T11:26:06.938Z,1004.25
2022-09-13T11:27:06.942Z,1004.18
2022-09-13T11:28:06.946Z,1004.17
2022-09-13T11:29:06.956Z,1004.15
2022-09-13T11:30:06.953Z,1004.15
2022-09-13T11:31:06.987Z,1004.15
2022-09-13T11:32:07.048Z,1004.16
2022-09-13T11:33:06.966Z,1004.11
2022-09-13T11:34:06.974Z,1004.17
2022-09-13T11:35:06.978Z,1004.06
2022-09-13T11:36:06.985Z,1004.08
2022-09-13T11:37:06.988Z,1004.04
2022-09-13T11:38:06.994Z,1004.01
2022-09-13T11:39:06.995Z,1004.03
2022-09-13T11:40:07.064Z,1003.98
2022-09-13T11:41:07.001Z,1004.02
2022-09-13T11:42:07.005Z,1003.99
2022-09-13T11:43:07.011Z,1003.97
2022-09-13T11:44:07.012Z,1003.96
2022-09-13T11:45:07.011Z,1003.98
2022-09-13T11:46:07.074Z,1004.01
2022-09-13T11:47:07.045Z,1004.03
2022-09-13T11:48:07.025Z,1003.99
2022-09-13T11:49:07.027Z,1004.03
2022-09-13T11:50:07.037Z,1004.04
2022-09-13T11:51:07.029Z,1003.98
2022-09-13T11:52:07.044Z,1004.07
2022-09-13T11:53:07.044Z,1004.07
2022-09-13T11:54:07.046Z,1004.09
2022-09-13T11:55:07.054Z,1004.08
2022-09-13T11:56:07.048Z,1004.12
2022-09-13T11:57:07.054Z,1004.10
2022-09-13T11:58:07.056Z,1004.06
2022-09-13T11:59:07.057Z,1004.13
2022-09-13T12:00:07.073Z,1004.13
2022-09-13T12:01:07.065Z,1004.03
2022-09-13T12:02:07.190Z,1004.10
2022-09-13T12:03:07.215Z,1004.07
2022-09-13T12:04:07.070Z,1004.06
2022-09-13T12:05:23.751Z,1004.10